createdAt,value
2022-12-29T00:00:05.042Z,2.60
2022-12-29T00:00:15.073Z,2.70
2022-12-29T00:00:24.962Z,2.80
2022-12-29T00:00:34.953Z,1.40
2022-12-29T00:00:45.997Z,1.50
2022-12-29T00:00:54.997Z,1.70
2022-12-29T00:01:04.996Z,1.60
2022-12-29T00:01:14.940Z,1.50
2022-12-29T00:01:24.940Z,1.20
2022-12-29T00:01:34.978Z,1.20
2022-12-29T00:01:44.958Z,1.60
2022-12-29T00:01:54.923Z,1.50
2022-12-29T00:02:04.932Z,1.70
2022-12-29T00:02:15.042Z,1.50
2022-12-29T00:02:25.014Z,1.40
2022-12-29T00:02:35.161Z,1.00
2022-12-29T00:02:45.088Z,1.10
2022-12-29T00:02:55.102Z,1.30
2022-12-29T00:03:05.047Z,1.80
2022-12-29T00:03:15.066Z,1.80
2022-12-29T00:03:25.115Z,1.60
2022-12-29T00:03:35.223Z,1.40
2022-12-29T00:03:45.040Z,1.30
2022-12-29T00:03:55.226Z,3.70
2022-12-29T00:04:07.710Z,3.70
2022-12-29T00:04:15.636Z,3.60
2022-12-29T00:04:25.418Z,1.10
2022-12-29T00:04:34.931Z,1.20
2022-12-29T00:04:45.414Z,1.10
2022-12-29T00:04:54.915Z,1.40
2022-12-29T00:05:04.948Z,1.20
2022-12-29T00:05:14.932Z,1.20
2022-12-29T00:05:24.968Z,1.10
2022-12-29T00:05:34.917Z,1.30
2022-12-29T00:05:44.943Z,1.50
2022-12-29T00:05:54.923Z,1.70
2022-12-29T00:06:04.955Z,1.70
2022-12-29T00:06:14.897Z,1.40
2022-12-29T00:06:24.915Z,1.20
2022-12-29T00:06:34.927Z,1.10
2022-12-29T00:06:45.431Z,1.30
2022-12-29T00:06:54.909Z,1.10
2022-12-29T00:07:04.903Z,1.20
2022-12-29T00:07:14.907Z,1.20
2022-12-29T00:07:24.901Z,1.30
2022-12-29T00:07:34.899Z,1.30
2022-12-29T00:07:44.934Z,1.20
2022-12-29T00:07:54.897Z,3.50
2022-12-29T00:08:04.915Z,3.40
2022-12-29T00:08:15.006Z,3.50
2022-12-29T00:08:24.905Z,1.30
2022-12-29T00:08:34.892Z,1.40
2022-12-29T00:08:44.938Z,1.40
2022-12-29T00:08:54.973Z,1.40
2022-12-29T00:09:04.885Z,1.50
2022-12-29T00:09:14.900Z,1.40
2022-12-29T00:09:24.898Z,1.30
2022-12-29T00:09:34.890Z,1.20
2022-12-29T00:09:45.458Z,1.30
2022-12-29T00:09:54.915Z,1.50
2022-12-29T00:10:04.888Z,1.50
2022-12-29T00:10:14.905Z,1.20
2022-12-29T00:10:24.882Z,1.10
2022-12-29T00:10:34.908Z,1.30
2022-12-29T00:10:44.920Z,1.40
2022-12-29T00:10:54.886Z,1.50
2022-12-29T00:11:04.899Z,1.30
2022-12-29T00:11:14.877Z,1.40
2022-12-29T00:11:25.472Z,1.30
2022-12-29T00:11:34.892Z,1.70
2022-12-29T00:11:44.875Z,1.40
2022-12-29T00:11:54.912Z,1.60
2022-12-29T00:12:04.900Z,1.20
2022-12-29T00:12:14.876Z,1.50
2022-12-29T00:12:24.888Z,1.20
2022-12-29T00:12:34.899Z,1.20
2022-12-29T00:12:44.932Z,1.30
2022-12-29T00:12:54.872Z,1.20
2022-12-29T00:13:04.901Z,1.50
2022-12-29T00:13:14.867Z,1.20
2022-12-29T00:13:24.869Z,1.50
2022-12-29T00:13:34.900Z,1.40
2022-12-29T00:13:44.987Z,1.60
2022-12-29T00:13:54.889Z,1.70
2022-12-29T00:14:04.997Z,1.60
2022-12-29T00:14:14.865Z,1.50
2022-12-29T00:14:26.351Z,1.00
2022-12-29T00:14:34.862Z,1.00
2022-12-29T00:14:44.874Z,1.00
2022-12-29T00:14:54.903Z,1.30
2022-12-29T00:15:04.891Z,1.30
2022-12-29T00:15:14.881Z,1.20
2022-12-29T00:15:24.879Z,1.10
2022-12-29T00:15:35.082Z,1.20
2022-12-29T00:15:44.923Z,1.20
2022-12-29T00:15:54.927Z,1.20
2022-12-29T00:16:04.927Z,1.00
2022-12-29T00:16:14.965Z,3.40
2022-12-29T00:16:24.963Z,3.50
2022-12-29T00:16:34.934Z,3.40
2022-12-29T00:16:44.856Z,1.20
2022-12-29T00:16:55.458Z,1.20
2022-12-29T00:17:04.858Z,1.20
2022-12-29T00:17:14.864Z,1.30
2022-12-29T00:17:25.474Z,1.40
2022-12-29T00:17:34.859Z,1.40
2022-12-29T00:17:44.892Z,1.30
2022-12-29T00:17:54.857Z,1.10
2022-12-29T00:18:04.858Z,1.10
2022-12-29T00:18:14.857Z,1.00
2022-12-29T00:18:24.950Z,1.10
2022-12-29T00:18:34.951Z,1.00
2022-12-29T00:18:44.855Z,1.60
2022-12-29T00:18:54.846Z,1.50
2022-12-29T00:19:04.876Z,1.50
2022-12-29T00:19:14.971Z,1.30
2022-12-29T00:19:24.899Z,3.30
2022-12-29T00:19:34.849Z,5.20
2022-12-29T00:19:44.894Z,5.00
2022-12-29T00:19:54.840Z,2.60
2022-12-29T00:20:04.867Z,0.90
2022-12-29T00:20:14.845Z,1.00
2022-12-29T00:20:24.843Z,1.10
2022-12-29T00:20:34.846Z,1.20
2022-12-29T00:20:44.835Z,1.20
2022-12-29T00:20:54.858Z,1.30
2022-12-29T00:21:04.905Z,1.30
2022-12-29T00:21:14.842Z,1.40
2022-12-29T00:21:24.853Z,3.50
2022-12-29T00:21:34.861Z,3.50
2022-12-29T00:21:44.862Z,3.30
2022-12-29T00:21:54.861Z,0.90
2022-12-29T00:22:04.845Z,3.50
2022-12-29T00:22:15.471Z,3.60
2022-12-29T00:22:24.865Z,6.40
2022-12-29T00:22:34.912Z,3.30
2022-12-29T00:22:44.827Z,3.40
2022-12-29T00:22:54.922Z,0.80
2022-12-29T00:23:04.832Z,0.80
2022-12-29T00:23:15.409Z,0.70
2022-12-29T00:23:24.857Z,0.80
2022-12-29T00:23:34.856Z,1.00
2022-12-29T00:23:44.862Z,1.00
2022-12-29T00:23:55.436Z,1.40
2022-12-29T00:24:04.823Z,1.20
2022-12-29T00:24:14.829Z,3.40
2022-12-29T00:24:24.908Z,3.10
2022-12-29T00:24:34.878Z,3.30
2022-12-29T00:24:44.980Z,1.00
2022-12-29T00:24:54.825Z,0.90
2022-12-29T00:25:04.908Z,0.70
2022-12-29T00:25:14.881Z,0.90
2022-12-29T00:25:24.833Z,1.00
2022-12-29T00:25:34.842Z,1.10
2022-12-29T00:25:44.852Z,0.90
2022-12-29T00:25:54.904Z,0.90
2022-12-29T00:26:04.817Z,1.10
2022-12-29T00:26:14.811Z,1.20
2022-12-29T00:26:24.835Z,2.80
2022-12-29T00:26:35.448Z,2.40
2022-12-29T00:26:44.871Z,2.50
2022-12-29T00:26:54.812Z,1.00
2022-12-29T00:27:04.838Z,0.90
2022-12-29T00:27:14.825Z,0.80
2022-12-29T00:27:24.825Z,0.70
2022-12-29T00:27:34.825Z,0.60
2022-12-29T00:27:44.934Z,0.70
2022-12-29T00:27:54.844Z,0.70
2022-12-29T00:28:07.607Z,0.70
2022-12-29T00:28:14.819Z,0.80
2022-12-29T00:28:24.812Z,0.80
2022-12-29T00:28:34.800Z,0.80
2022-12-29T00:28:44.841Z,0.70
2022-12-29T00:28:54.802Z,0.70
2022-12-29T00:29:04.813Z,0.60
2022-12-29T00:29:14.831Z,0.60
2022-12-29T00:29:24.823Z,0.70
2022-12-29T00:29:35.416Z,0.80
2022-12-29T00:29:44.819Z,0.70
2022-12-29T00:29:54.801Z,2.60
2022-12-29T00:30:04.823Z,2.70
2022-12-29T00:30:14.848Z,2.70
2022-12-29T00:30:24.800Z,0.60
2022-12-29T00:30:34.798Z,0.70
2022-12-29T00:30:44.829Z,0.70
2022-12-29T00:30:55.520Z,3.20
2022-12-29T00:31:04.888Z,3.10
2022-12-29T00:31:14.832Z,3.10
2022-12-29T00:31:24.872Z,0.70
2022-12-29T00:31:34.884Z,0.70
2022-12-29T00:31:44.904Z,3.00
2022-12-29T00:31:54.815Z,3.10
2022-12-29T00:32:04.937Z,3.10
2022-12-29T00:32:15.455Z,0.80
2022-12-29T00:32:24.785Z,0.80
2022-12-29T00:32:34.789Z,0.70
2022-12-29T00:32:44.805Z,0.70
2022-12-29T00:32:54.810Z,0.70
2022-12-29T00:33:04.804Z,0.80
2022-12-29T00:33:14.804Z,0.80
2022-12-29T00:33:24.799Z,0.90
2022-12-29T00:33:35.427Z,1.00
2022-12-29T00:33:44.966Z,1.20
2022-12-29T00:33:55.439Z,1.10
2022-12-29T00:34:04.802Z,1.00
2022-12-29T00:34:14.818Z,0.70
2022-12-29T00:34:24.790Z,0.70
2022-12-29T00:34:34.809Z,0.70
2022-12-29T00:34:44.837Z,0.70
2022-12-29T00:34:54.782Z,0.60
2022-12-29T00:35:05.421Z,0.60
2022-12-29T00:35:14.812Z,0.50
2022-12-29T00:35:24.786Z,0.60
2022-12-29T00:35:34.818Z,0.70
2022-12-29T00:35:44.790Z,0.70
2022-12-29T00:35:54.791Z,0.90
2022-12-29T00:36:04.791Z,0.70
2022-12-29T00:36:14.779Z,0.70
2022-12-29T00:36:24.803Z,0.60
2022-12-29T00:36:34.802Z,0.60
2022-12-29T00:36:44.788Z,0.60
2022-12-29T00:36:54.771Z,0.60
2022-12-29T00:37:04.780Z,0.70
2022-12-29T00:37:14.791Z,0.70
2022-12-29T00:37:24.764Z,0.70
2022-12-29T00:37:34.793Z,0.70
2022-12-29T00:37:44.804Z,0.80
2022-12-29T00:37:55.433Z,0.80
2022-12-29T00:38:04.775Z,0.70
2022-12-29T00:38:14.839Z,0.70
2022-12-29T00:38:24.768Z,0.70
2022-12-29T00:38:34.767Z,0.80
2022-12-29T00:38:44.759Z,0.90
2022-12-29T00:38:54.766Z,1.00
2022-12-29T00:39:04.775Z,0.90
2022-12-29T00:39:14.820Z,0.60
2022-12-29T00:39:24.771Z,0.50
2022-12-29T00:39:34.769Z,0.70
2022-12-29T00:39:44.791Z,0.80
2022-12-29T00:39:54.794Z,1.00
2022-12-29T00:40:04.807Z,0.90
2022-12-29T00:40:14.762Z,0.80
2022-12-29T00:40:24.779Z,0.60
2022-12-29T00:40:34.789Z,0.70
2022-12-29T00:40:44.752Z,4.70
2022-12-29T00:40:54.837Z,4.50
2022-12-29T00:41:04.749Z,4.40
2022-12-29T00:41:14.757Z,0.80
2022-12-29T00:41:25.426Z,0.70
2022-12-29T00:41:34.780Z,0.70
2022-12-29T00:41:44.749Z,0.60
2022-12-29T00:41:54.778Z,0.80
2022-12-29T00:42:05.442Z,0.70
2022-12-29T00:42:15.393Z,0.70
2022-12-29T00:42:24.758Z,0.70
2022-12-29T00:42:35.416Z,0.80
2022-12-29T00:42:44.754Z,0.80
2022-12-29T00:42:54.762Z,0.80
2022-12-29T00:43:04.750Z,0.70
2022-12-29T00:43:14.751Z,0.60
2022-12-29T00:43:24.779Z,3.30
2022-12-29T00:43:34.745Z,3.30
2022-12-29T00:43:44.771Z,3.40
2022-12-29T00:43:55.434Z,0.90
2022-12-29T00:44:04.751Z,1.00
2022-12-29T00:44:14.771Z,0.80
2022-12-29T00:44:24.735Z,0.60
2022-12-29T00:44:34.741Z,0.60
2022-12-29T00:44:44.759Z,0.60
2022-12-29T00:44:54.843Z,0.80
2022-12-29T00:45:04.919Z,1.00
2022-12-29T00:45:15.415Z,1.00
2022-12-29T00:45:24.734Z,1.00
2022-12-29T00:45:34.755Z,0.70
2022-12-29T00:45:44.751Z,0.70
2022-12-29T00:45:54.833Z,0.70
2022-12-29T00:46:04.880Z,0.70
2022-12-29T00:46:19.716Z,1.00
2022-12-29T00:46:24.755Z,1.00
2022-12-29T00:46:34.818Z,1.10
2022-12-29T00:46:44.791Z,0.80
2022-12-29T00:46:55.467Z,0.60
2022-12-29T00:47:04.771Z,0.60
2022-12-29T00:47:14.825Z,0.60
2022-12-29T00:47:24.773Z,0.70
2022-12-29T00:47:34.736Z,0.60
2022-12-29T00:47:44.887Z,0.70
2022-12-29T00:47:55.436Z,0.50
2022-12-29T00:48:04.785Z,0.70
2022-12-29T00:48:14.730Z,0.70
2022-12-29T00:48:24.732Z,0.80
2022-12-29T00:48:34.738Z,0.80
2022-12-29T00:48:44.723Z,0.70
2022-12-29T00:48:57.515Z,0.60
2022-12-29T00:49:05.426Z,0.60
2022-12-29T00:49:14.727Z,0.60
2022-12-29T00:49:24.736Z,0.60
2022-12-29T00:49:35.459Z,0.60
2022-12-29T00:49:44.766Z,0.60
2022-12-29T00:49:54.714Z,0.50
2022-12-29T00:50:04.774Z,0.60
2022-12-29T00:50:14.776Z,0.60
2022-12-29T00:50:25.424Z,0.70
2022-12-29T00:50:34.713Z,0.80
2022-12-29T00:50:44.727Z,0.80
2022-12-29T00:50:54.719Z,0.90
2022-12-29T00:51:04.706Z,0.80
2022-12-29T00:51:14.724Z,0.90
2022-12-29T00:51:24.725Z,0.80
2022-12-29T00:51:34.740Z,0.80
2022-12-29T00:51:44.732Z,0.70
2022-12-29T00:51:54.825Z,0.70
2022-12-29T00:52:04.722Z,0.70
2022-12-29T00:52:14.717Z,0.80
2022-12-29T00:52:24.715Z,0.80
2022-12-29T00:52:34.720Z,0.80
2022-12-29T00:52:44.717Z,3.20
2022-12-29T00:52:54.709Z,3.20
2022-12-29T00:53:04.724Z,3.30
2022-12-29T00:53:15.464Z,0.80
2022-12-29T00:53:24.730Z,0.70
2022-12-29T00:53:34.698Z,0.70
2022-12-29T00:53:44.696Z,0.60
2022-12-29T00:53:54.700Z,0.70
2022-12-29T00:54:04.713Z,0.70
2022-12-29T00:54:14.742Z,0.70
2022-12-29T00:54:24.700Z,0.70
2022-12-29T00:54:34.717Z,0.60
2022-12-29T00:54:45.456Z,0.60
2022-12-29T00:54:54.706Z,0.50
2022-12-29T00:55:04.696Z,0.70
2022-12-29T00:55:14.713Z,0.70
2022-12-29T00:55:24.749Z,0.70
2022-12-29T00:55:34.711Z,0.50
2022-12-29T00:55:44.701Z,0.60
2022-12-29T00:55:54.689Z,0.60
2022-12-29T00:56:04.776Z,0.70
2022-12-29T00:56:14.707Z,0.60
2022-12-29T00:56:24.709Z,0.70
2022-12-29T00:56:34.689Z,0.70
2022-12-29T00:56:44.691Z,0.90
2022-12-29T00:56:54.688Z,0.90
2022-12-29T00:57:04.693Z,0.90
2022-12-29T00:57:14.714Z,0.90
2022-12-29T00:57:25.429Z,0.80
2022-12-29T00:57:34.693Z,3.30
2022-12-29T00:57:44.711Z,3.30
2022-12-29T00:57:54.695Z,3.30
2022-12-29T00:58:04.705Z,0.90
2022-12-29T00:58:14.677Z,0.90
2022-12-29T00:58:24.687Z,0.90
2022-12-29T00:58:34.698Z,0.70
2022-12-29T00:58:44.687Z,0.60
2022-12-29T00:58:54.780Z,0.60
2022-12-29T00:59:04.699Z,0.80
2022-12-29T00:59:14.699Z,0.80
2022-12-29T00:59:24.711Z,0.70
2022-12-29T00:59:34.674Z,0.70
2022-12-29T00:59:44.677Z,0.80
2022-12-29T00:59:54.668Z,0.80
2022-12-29T01:00:05.495Z,3.10
2022-12-29T01:00:15.475Z,2.90
2022-12-29T01:00:25.482Z,3.30
2022-12-29T01:00:34.748Z,0.90
2022-12-29T01:00:44.740Z,0.90
2022-12-29T01:00:55.471Z,0.90
2022-12-29T01:01:04.741Z,3.50
2022-12-29T01:01:14.802Z,3.50
2022-12-29T01:01:24.752Z,3.20
2022-12-29T01:01:35.752Z,0.70
2022-12-29T01:01:44.805Z,0.60
2022-12-29T01:01:54.860Z,0.60
2022-12-29T01:02:04.804Z,0.60
2022-12-29T01:02:14.801Z,2.60
2022-12-29T01:02:24.861Z,2.80
2022-12-29T01:02:34.845Z,2.80
2022-12-29T01:02:44.777Z,0.70
2022-12-29T01:02:54.811Z,1.00
2022-12-29T01:03:04.847Z,1.10
2022-12-29T01:03:14.747Z,0.90
2022-12-29T01:03:24.669Z,0.60
2022-12-29T01:03:34.666Z,0.70
2022-12-29T01:03:44.663Z,0.90
2022-12-29T01:03:57.416Z,1.00
2022-12-29T01:04:04.937Z,1.00
2022-12-29T01:04:14.669Z,0.80
2022-12-29T01:04:24.740Z,0.70
2022-12-29T01:04:34.679Z,0.60
2022-12-29T01:04:44.671Z,0.60
2022-12-29T01:04:54.659Z,0.70
2022-12-29T01:05:04.662Z,0.80
2022-12-29T01:05:14.666Z,0.80
2022-12-29T01:05:24.658Z,1.00
2022-12-29T01:05:34.648Z,0.90
2022-12-29T01:05:44.712Z,0.90
2022-12-29T01:05:54.645Z,0.60
2022-12-29T01:06:04.649Z,0.80
2022-12-29T01:06:14.654Z,0.80
2022-12-29T01:06:24.655Z,1.10
2022-12-29T01:06:34.708Z,1.00
2022-12-29T01:06:44.684Z,1.00
2022-12-29T01:06:54.683Z,0.80
2022-12-29T01:07:04.654Z,1.00
2022-12-29T01:07:14.697Z,1.00
2022-12-29T01:07:24.649Z,1.00
2022-12-29T01:07:34.647Z,0.80
2022-12-29T01:07:44.636Z,0.70
2022-12-29T01:07:54.651Z,0.70
2022-12-29T01:08:04.645Z,0.80
2022-12-29T01:08:14.650Z,0.80
2022-12-29T01:08:24.638Z,0.80
2022-12-29T01:08:35.477Z,2.60
2022-12-29T01:08:44.639Z,2.40
2022-12-29T01:08:54.662Z,2.40
2022-12-29T01:09:04.644Z,0.70
2022-12-29T01:09:14.652Z,0.70
2022-12-29T01:09:24.644Z,0.80
2022-12-29T01:09:34.642Z,0.80
2022-12-29T01:09:44.643Z,1.00
2022-12-29T01:09:54.652Z,1.00
2022-12-29T01:10:04.711Z,1.00
2022-12-29T01:10:14.640Z,0.90
2022-12-29T01:10:24.639Z,0.80
2022-12-29T01:10:34.636Z,0.80
2022-12-29T01:10:44.651Z,0.70
2022-12-29T01:10:54.686Z,0.60
2022-12-29T01:11:05.430Z,0.70
2022-12-29T01:11:14.623Z,0.60
2022-12-29T01:11:25.436Z,0.60
2022-12-29T01:11:34.673Z,0.70
2022-12-29T01:11:44.646Z,0.80
2022-12-29T01:11:54.694Z,0.90
2022-12-29T01:12:04.643Z,0.90
2022-12-29T01:12:14.630Z,0.80
2022-12-29T01:12:24.620Z,3.50
2022-12-29T01:12:34.626Z,6.30
2022-12-29T01:12:44.671Z,6.40
2022-12-29T01:12:54.638Z,3.30
2022-12-29T01:13:04.626Z,0.80
2022-12-29T01:13:14.628Z,0.80
2022-12-29T01:13:24.617Z,0.70
2022-12-29T01:13:34.644Z,0.60
2022-12-29T01:13:44.756Z,0.70
2022-12-29T01:13:54.626Z,0.90
2022-12-29T01:14:04.631Z,1.10
2022-12-29T01:14:14.713Z,0.90
2022-12-29T01:14:24.630Z,1.00
2022-12-29T01:14:34.737Z,0.90
2022-12-29T01:14:44.618Z,3.30
2022-12-29T01:14:54.633Z,3.10
2022-12-29T01:15:04.633Z,3.10
2022-12-29T01:15:14.647Z,0.70
2022-12-29T01:15:24.618Z,0.60
2022-12-29T01:15:34.667Z,0.70
2022-12-29T01:15:44.609Z,0.80
2022-12-29T01:15:54.666Z,0.80
2022-12-29T01:16:04.725Z,0.80
2022-12-29T01:16:14.767Z,0.70
2022-12-29T01:16:24.699Z,0.80
2022-12-29T01:16:34.790Z,0.80
2022-12-29T01:16:45.574Z,0.80
2022-12-29T01:16:54.645Z,0.70
2022-12-29T01:17:04.940Z,0.70
2022-12-29T01:17:14.615Z,0.70
2022-12-29T01:17:24.595Z,0.80
2022-12-29T01:17:34.670Z,0.80
2022-12-29T01:17:44.599Z,0.70
2022-12-29T01:17:54.598Z,0.80
2022-12-29T01:18:04.718Z,1.00
2022-12-29T01:18:14.595Z,3.10
2022-12-29T01:18:25.479Z,3.00
2022-12-29T01:18:35.446Z,3.00
2022-12-29T01:18:44.595Z,0.80
2022-12-29T01:18:54.602Z,1.00
2022-12-29T01:19:04.605Z,0.90
2022-12-29T01:19:14.599Z,0.90
2022-12-29T01:19:24.593Z,2.70
2022-12-29T01:19:34.629Z,2.70
2022-12-29T01:19:44.607Z,3.00
2022-12-29T01:19:54.594Z,1.20
2022-12-29T01:20:04.602Z,10.10
2022-12-29T01:20:14.621Z,9.80
2022-12-29T01:20:24.598Z,9.90
2022-12-29T01:20:34.596Z,0.90
2022-12-29T01:20:44.582Z,1.10
2022-12-29T01:20:54.676Z,1.10
2022-12-29T01:21:04.586Z,1.00
2022-12-29T01:21:15.430Z,0.90
2022-12-29T01:21:24.586Z,0.90
2022-12-29T01:21:34.610Z,1.00
2022-12-29T01:21:44.589Z,1.30
2022-12-29T01:21:54.578Z,1.10
2022-12-29T01:22:04.590Z,1.00
2022-12-29T01:22:14.593Z,0.70
2022-12-29T01:22:24.572Z,0.80
2022-12-29T01:22:35.486Z,0.80
2022-12-29T01:22:44.594Z,0.90
2022-12-29T01:22:54.582Z,0.90
2022-12-29T01:23:04.588Z,1.00
2022-12-29T01:23:14.590Z,1.00
2022-12-29T01:23:24.587Z,1.00
2022-12-29T01:23:34.583Z,1.00
2022-12-29T01:23:44.583Z,3.80
2022-12-29T01:23:54.582Z,3.70
2022-12-29T01:24:05.418Z,3.70
2022-12-29T01:24:14.603Z,1.00
2022-12-29T01:24:24.564Z,1.00
2022-12-29T01:24:35.455Z,0.90
2022-12-29T01:24:45.427Z,1.00
2022-12-29T01:24:54.575Z,1.10
2022-12-29T01:25:04.574Z,5.10
2022-12-29T01:25:14.683Z,5.00
2022-12-29T01:25:25.442Z,4.90
2022-12-29T01:25:34.583Z,1.00
2022-12-29T01:25:44.570Z,1.10
2022-12-29T01:25:54.586Z,1.10
2022-12-29T01:26:04.603Z,1.20
2022-12-29T01:26:14.571Z,1.30
2022-12-29T01:26:24.639Z,1.30
2022-12-29T01:26:34.585Z,1.10
2022-12-29T01:26:44.622Z,1.00
2022-12-29T01:26:54.555Z,1.20
2022-12-29T01:27:04.586Z,1.30
2022-12-29T01:27:14.560Z,1.40
2022-12-29T01:27:24.667Z,1.20
2022-12-29T01:27:34.584Z,1.10
2022-12-29T01:27:44.560Z,1.00
2022-12-29T01:27:54.566Z,1.20
2022-12-29T01:28:04.577Z,1.20
2022-12-29T01:28:14.606Z,1.20
2022-12-29T01:28:26.311Z,1.10
2022-12-29T01:28:34.558Z,1.20
2022-12-29T01:28:44.567Z,1.30
2022-12-29T01:28:54.575Z,1.30
2022-12-29T01:29:04.559Z,1.10
2022-12-29T01:29:14.592Z,1.00
2022-12-29T01:29:24.558Z,1.30
2022-12-29T01:29:35.430Z,1.40
2022-12-29T01:29:44.576Z,1.50
2022-12-29T01:29:54.604Z,1.50
2022-12-29T01:30:04.548Z,1.30
2022-12-29T01:30:14.563Z,1.50
2022-12-29T01:30:24.550Z,1.30
2022-12-29T01:30:34.541Z,1.50
2022-12-29T01:30:44.568Z,1.40
2022-12-29T01:30:54.551Z,1.50
2022-12-29T01:31:04.642Z,1.50
2022-12-29T01:31:14.623Z,1.40
2022-12-29T01:31:24.644Z,1.30
2022-12-29T01:31:34.619Z,1.00
2022-12-29T01:31:44.579Z,1.10
2022-12-29T01:31:54.592Z,1.00
2022-12-29T01:32:04.709Z,1.40
2022-12-29T01:32:14.539Z,1.40
2022-12-29T01:32:25.455Z,1.50
2022-12-29T01:32:34.549Z,1.20
2022-12-29T01:32:44.539Z,1.10
2022-12-29T01:32:54.544Z,1.00
2022-12-29T01:33:04.555Z,1.00
2022-12-29T01:33:14.550Z,3.30
2022-12-29T01:33:24.530Z,3.30
2022-12-29T01:33:34.560Z,3.30
2022-12-29T01:33:47.642Z,1.40
2022-12-29T01:33:54.573Z,1.30
2022-12-29T01:34:04.534Z,1.20
2022-12-29T01:34:14.681Z,1.10
2022-12-29T01:34:24.549Z,1.20
2022-12-29T01:34:34.553Z,1.40
2022-12-29T01:34:44.525Z,1.30
2022-12-29T01:34:54.610Z,1.30
2022-12-29T01:35:05.505Z,1.30
2022-12-29T01:35:14.611Z,1.40
2022-12-29T01:35:24.532Z,1.40
2022-12-29T01:35:34.544Z,1.30
2022-12-29T01:35:44.535Z,1.20
2022-12-29T01:35:54.531Z,1.10
2022-12-29T01:36:04.547Z,1.40
2022-12-29T01:36:14.522Z,1.60
2022-12-29T01:36:24.517Z,1.80
2022-12-29T01:36:34.577Z,1.40
2022-12-29T01:36:44.693Z,1.50
2022-12-29T01:36:54.526Z,1.40
2022-12-29T01:37:04.512Z,1.50
2022-12-29T01:37:14.544Z,1.40
2022-12-29T01:37:24.515Z,1.40
2022-12-29T01:37:34.512Z,1.40
2022-12-29T01:37:44.535Z,1.20
2022-12-29T01:37:54.515Z,1.20
2022-12-29T01:38:04.520Z,1.20
2022-12-29T01:38:14.520Z,1.50
2022-12-29T01:38:24.535Z,1.50
2022-12-29T01:38:34.517Z,1.30
2022-12-29T01:38:44.537Z,1.10
2022-12-29T01:38:54.537Z,1.10
2022-12-29T01:39:04.524Z,1.20
2022-12-29T01:39:14.615Z,1.20
2022-12-29T01:39:25.473Z,1.20
2022-12-29T01:39:34.534Z,1.30
2022-12-29T01:39:44.539Z,1.40
2022-12-29T01:39:54.508Z,1.60
2022-12-29T01:40:04.507Z,1.70
2022-12-29T01:40:14.510Z,1.70
2022-12-29T01:40:24.589Z,1.70
2022-12-29T01:40:34.505Z,1.50
2022-12-29T01:40:44.557Z,1.40
2022-12-29T01:40:54.494Z,1.40
2022-12-29T01:41:04.522Z,1.20
2022-12-29T01:41:14.621Z,2.90
2022-12-29T01:41:24.502Z,3.10
2022-12-29T01:41:34.556Z,3.10
2022-12-29T01:41:44.557Z,1.80
2022-12-29T01:41:54.588Z,1.60
2022-12-29T01:42:04.653Z,1.50
2022-12-29T01:42:14.574Z,1.50
2022-12-29T01:42:24.549Z,1.60
2022-12-29T01:42:35.451Z,1.70
2022-12-29T01:42:44.486Z,1.30
2022-12-29T01:42:54.510Z,1.20
2022-12-29T01:43:04.501Z,1.20
2022-12-29T01:43:14.496Z,1.30
2022-12-29T01:43:25.470Z,1.60
2022-12-29T01:43:35.562Z,1.80
2022-12-29T01:43:44.492Z,1.80
2022-12-29T01:43:54.504Z,1.60
2022-12-29T01:44:04.487Z,1.40
2022-12-29T01:44:14.507Z,1.60
2022-12-29T01:44:24.487Z,1.70
2022-12-29T01:44:34.501Z,1.70
2022-12-29T01:44:45.458Z,1.80
2022-12-29T01:44:54.537Z,1.60
2022-12-29T01:45:04.518Z,1.60
2022-12-29T01:45:14.485Z,1.40
2022-12-29T01:45:24.530Z,1.50
2022-12-29T01:45:34.514Z,1.50
2022-12-29T01:45:44.555Z,1.40
2022-12-29T01:45:54.606Z,1.40
2022-12-29T01:46:04.610Z,1.50
2022-12-29T01:46:14.554Z,1.40
2022-12-29T01:46:24.666Z,1.30
2022-12-29T01:46:34.483Z,1.40
2022-12-29T01:46:44.481Z,1.70
2022-12-29T01:46:54.490Z,1.80
2022-12-29T01:47:04.643Z,1.60
2022-12-29T01:47:14.490Z,1.50
2022-12-29T01:47:24.477Z,1.70
2022-12-29T01:47:34.490Z,1.90
2022-12-29T01:47:45.460Z,1.90
2022-12-29T01:47:54.655Z,1.80
2022-12-29T01:48:04.496Z,1.60
2022-12-29T01:48:14.491Z,1.70
2022-12-29T01:48:24.485Z,1.70
2022-12-29T01:48:34.469Z,1.60
2022-12-29T01:48:44.505Z,1.40
2022-12-29T01:48:54.604Z,1.40
2022-12-29T01:49:04.477Z,1.50
2022-12-29T01:49:14.634Z,1.90
2022-12-29T01:49:24.461Z,1.70
2022-12-29T01:49:34.560Z,1.70
2022-12-29T01:49:44.475Z,1.50
2022-12-29T01:49:54.462Z,2.00
2022-12-29T01:50:04.469Z,1.90
2022-12-29T01:50:14.468Z,1.70
2022-12-29T01:50:24.461Z,1.50
2022-12-29T01:50:35.474Z,1.60
2022-12-29T01:50:44.474Z,1.70
2022-12-29T01:50:54.461Z,1.70
2022-12-29T01:51:04.568Z,1.60
2022-12-29T01:51:14.487Z,1.60
2022-12-29T01:51:24.509Z,1.60
2022-12-29T01:51:34.477Z,1.60
2022-12-29T01:51:44.483Z,1.60
2022-12-29T01:51:54.475Z,1.70
2022-12-29T01:52:04.480Z,1.70
2022-12-29T01:52:14.732Z,1.50
2022-12-29T01:52:24.451Z,1.50
2022-12-29T01:52:34.452Z,1.30
2022-12-29T01:52:44.453Z,3.10
2022-12-29T01:52:54.467Z,3.00
2022-12-29T01:53:04.448Z,3.00
2022-12-29T01:53:14.462Z,1.40
2022-12-29T01:53:24.516Z,1.30
2022-12-29T01:53:34.447Z,1.60
2022-12-29T01:53:44.454Z,1.80
2022-12-29T01:53:54.451Z,1.90
2022-12-29T01:54:04.453Z,1.50
2022-12-29T01:54:14.460Z,1.30
2022-12-29T01:54:24.458Z,1.30
2022-12-29T01:54:34.460Z,1.40
2022-12-29T01:54:45.530Z,1.30
2022-12-29T01:54:54.442Z,1.40
2022-12-29T01:55:04.505Z,2.10
2022-12-29T01:55:14.486Z,2.10
2022-12-29T01:55:24.443Z,1.90
2022-12-29T01:55:34.448Z,1.30
2022-12-29T01:55:44.441Z,1.40
2022-12-29T01:55:54.440Z,1.90
2022-12-29T01:56:04.452Z,2.10
2022-12-29T01:56:14.436Z,2.40
2022-12-29T01:56:24.443Z,2.30
2022-12-29T01:56:34.447Z,2.30
2022-12-29T01:56:44.986Z,1.90
2022-12-29T01:56:54.451Z,1.80
2022-12-29T01:57:04.442Z,2.70
2022-12-29T01:57:14.503Z,2.90
2022-12-29T01:57:24.527Z,2.90
2022-12-29T01:57:34.946Z,2.00
2022-12-29T01:57:44.452Z,1.80
2022-12-29T01:57:54.423Z,1.80
2022-12-29T01:58:04.434Z,1.90
2022-12-29T01:58:14.436Z,1.70
2022-12-29T01:58:24.460Z,1.70
2022-12-29T01:58:34.440Z,1.80
2022-12-29T01:58:44.486Z,1.70
2022-12-29T01:58:54.475Z,1.70
2022-12-29T01:59:04.424Z,1.50
2022-12-29T01:59:14.423Z,1.60
2022-12-29T01:59:24.429Z,1.40
2022-12-29T01:59:34.444Z,1.60
2022-12-29T01:59:44.433Z,1.70
2022-12-29T01:59:54.424Z,1.90
2022-12-29T02:00:04.440Z,1.60
2022-12-29T02:00:14.431Z,1.50
2022-12-29T02:00:24.479Z,1.60
2022-12-29T02:00:34.490Z,1.30
2022-12-29T02:00:44.551Z,1.30
2022-12-29T02:00:54.498Z,1.30
2022-12-29T02:01:04.482Z,1.50
2022-12-29T02:01:14.472Z,1.80
2022-12-29T02:01:24.550Z,1.70
2022-12-29T02:01:34.555Z,1.80
2022-12-29T02:01:45.082Z,1.60
2022-12-29T02:01:54.561Z,1.60
2022-12-29T02:02:04.465Z,1.40
2022-12-29T02:02:14.525Z,1.30
2022-12-29T02:02:24.437Z,1.30
2022-12-29T02:02:34.652Z,1.30
2022-12-29T02:02:44.489Z,1.50
2022-12-29T02:02:54.558Z,1.60
2022-12-29T02:03:04.468Z,1.80
2022-12-29T02:03:14.485Z,1.60
2022-12-29T02:03:24.514Z,1.60
2022-12-29T02:03:34.522Z,1.50
2022-12-29T02:03:44.529Z,1.90
2022-12-29T02:03:54.440Z,1.80
2022-12-29T02:04:04.400Z,1.70
2022-12-29T02:04:14.407Z,1.60
2022-12-29T02:04:24.423Z,1.80
2022-12-29T02:04:34.939Z,1.90
2022-12-29T02:04:44.403Z,1.80
2022-12-29T02:04:54.412Z,1.70
2022-12-29T02:05:04.971Z,1.80
2022-12-29T02:05:14.413Z,2.90
2022-12-29T02:05:24.402Z,5.60
2022-12-29T02:05:34.415Z,8.10
2022-12-29T02:05:44.412Z,6.00
2022-12-29T02:05:54.435Z,3.40
2022-12-29T02:06:04.399Z,1.60
2022-12-29T02:06:14.416Z,1.80
2022-12-29T02:06:24.400Z,1.90
2022-12-29T02:06:34.438Z,1.60
2022-12-29T02:06:44.395Z,1.70
2022-12-29T02:06:54.428Z,1.70
2022-12-29T02:07:04.403Z,1.80
2022-12-29T02:07:14.399Z,1.40
2022-12-29T02:07:24.388Z,1.20
2022-12-29T02:07:34.388Z,1.40
2022-12-29T02:07:44.440Z,1.40
2022-12-29T02:07:54.389Z,2.20
2022-12-29T02:08:04.396Z,2.00
2022-12-29T02:08:14.499Z,2.00
2022-12-29T02:08:24.470Z,1.30
2022-12-29T02:08:34.410Z,1.70
2022-12-29T02:08:44.426Z,1.60
2022-12-29T02:08:54.938Z,2.10
2022-12-29T02:09:04.435Z,1.70
2022-12-29T02:09:14.378Z,1.70
2022-12-29T02:09:24.396Z,1.30
2022-12-29T02:09:34.410Z,1.50
2022-12-29T02:09:44.419Z,1.50
2022-12-29T02:09:54.394Z,2.10
2022-12-29T02:10:04.376Z,1.70
2022-12-29T02:10:14.378Z,1.80
2022-12-29T02:10:24.383Z,1.20
2022-12-29T02:10:34.371Z,1.40
2022-12-29T02:10:44.374Z,1.40
2022-12-29T02:10:54.381Z,1.60
2022-12-29T02:11:04.376Z,1.50
2022-12-29T02:11:14.391Z,1.70
2022-12-29T02:11:24.384Z,2.00
2022-12-29T02:11:34.949Z,1.70
2022-12-29T02:11:44.368Z,1.60
2022-12-29T02:11:54.402Z,2.70
2022-12-29T02:12:04.376Z,2.70
2022-12-29T02:12:14.423Z,2.70
2022-12-29T02:12:24.399Z,1.70
2022-12-29T02:12:34.957Z,1.70
2022-12-29T02:12:44.380Z,2.90
2022-12-29T02:12:54.632Z,2.90
2022-12-29T02:13:04.386Z,2.80